sensor_id;sensor_type;location;lat;lon;timestamp;P1;durP1;ratioP1;P2;durP2;ratioP2
69573;SDS011;62840;52.366;5.980;2022-09-21T00:01:07;4.28;;;1.02;;
69573;SDS011;62840;52.366;5.980;2022-09-21T00:03:35;3.35;;;0.80;;
69573;SDS011;62840;52.366;5.980;2022-09-21T00:06:02;3.15;;;0.90;;
69573;SDS011;62840;52.366;5.980;2022-09-21T00:08:29;5.13;;;0.85;;
69573;SDS011;62840;52.366;5.980;2022-09-21T00:10:55;2.80;;;0.70;;
69573;SDS011;62840;52.366;5.980;2022-09-21T00:13:24;3.83;;;0.57;;
69573;SDS011;62840;52.366;5.980;2022-09-21T00:15:50;5.78;;;0.80;;
69573;SDS011;62840;52.366;5.980;2022-09-21T00:18:16;2.80;;;0.80;;
69573;SDS011;62840;52.366;5.980;2022-09-21T00:20:42;2.88;;;0.80;;
69573;SDS011;62840;52.366;5.980;2022-09-21T00:23:11;3.37;;;0.73;;
69573;SDS011;62840;52.366;5.980;2022-09-21T00:25:36;3.95;;;0.75;;
69573;SDS011;62840;52.366;5.980;2022-09-21T00:28:02;3.38;;;1.10;;
69573;SDS011;62840;52.366;5.980;2022-09-21T00:30:31;3.57;;;0.90;;
69573;SDS011;62840;52.366;5.980;2022-09-21T00:32:56;3.85;;;1.35;;
69573;SDS011;62840;52.366;5.980;2022-09-21T00:35:22;4.18;;;0.80;;
69573;SDS011;62840;52.366;5.980;2022-09-21T00:37:48;3.45;;;0.85;;
69573;SDS011;62840;52.366;5.980;2022-09-21T00:40:14;3.50;;;0.80;;
69573;SDS011;62840;52.366;5.980;2022-09-21T00:42:40;3.80;;;1.20;;
69573;SDS011;62840;52.366;5.980;2022-09-21T00:45:06;3.78;;;0.75;;
69573;SDS011;62840;52.366;5.980;2022-09-21T00:47:40;3.40;;;0.82;;
69573;SDS011;62840;52.366;5.980;2022-09-21T00:50:10;3.03;;;0.77;;
69573;SDS011;62840;52.366;5.980;2022-09-21T00:52:42;4.20;;;0.90;;
69573;SDS011;62840;52.366;5.980;2022-09-21T00:55:17;3.22;;;1.00;;
69573;SDS011;62840;52.366;5.980;2022-09-21T00:57:50;3.03;;;0.65;;
69573;SDS011;62840;52.366;5.980;2022-09-21T01:00:22;2.78;;;0.63;;
69573;SDS011;62840;52.366;5.980;2022-09-21T01:02:56;2.58;;;0.82;;
69573;SDS011;62840;52.366;5.980;2022-09-21T01:05:21;3.92;;;1.00;;
69573;SDS011;62840;52.366;5.980;2022-09-21T01:07:47;4.28;;;0.90;;
69573;SDS011;62840;52.366;5.980;2022-09-21T01:10:14;3.30;;;0.95;;
69573;SDS011;62840;52.366;5.980;2022-09-21T01:12:49;3.85;;;0.75;;
69573;SDS011;62840;52.366;5.980;2022-09-21T01:15:34;2.72;;;1.00;;
69573;SDS011;62840;52.366;5.980;2022-09-21T01:18:16;3.15;;;0.82;;
69573;SDS011;62840;52.366;5.980;2022-09-21T01:23:58;3.28;;;0.90;;
69573;SDS011;62840;52.366;5.980;2022-09-21T01:30:00;3.60;;;0.80;;
69573;SDS011;62840;52.366;5.980;2022-09-21T01:32:36;2.58;;;0.77;;
69573;SDS011;62840;52.366;5.980;2022-09-21T01:35:09;2.60;;;0.70;;
69573;SDS011;62840;52.366;5.980;2022-09-21T01:37:46;3.15;;;0.80;;
69573;SDS011;62840;52.366;5.980;2022-09-21T01:40:20;3.22;;;0.65;;
69573;SDS011;62840;52.366;5.980;2022-09-21T01:42:53;5.22;;;0.90;;
69573;SDS011;62840;52.366;5.980;2022-09-21T01:45:26;3.22;;;0.70;;
69573;SDS011;62840;52.366;5.980;2022-09-21T01:47:58;2.45;;;0.65;;
69573;SDS011;62840;52.366;5.980;2022-09-21T01:50:25;5.25;;;0.80;;
69573;SDS011;62840;52.366;5.980;2022-09-21T01:52:58;2.58;;;0.77;;
69573;SDS011;62840;52.366;5.980;2022-09-21T01:55:35;4.45;;;0.70;;
69573;SDS011;62840;52.366;5.980;2022-09-21T01:58:11;2.45;;;0.65;;
69573;SDS011;62840;52.366;5.980;2022-09-21T02:00:49;3.47;;;0.88;;
69573;SDS011;62840;52.366;5.980;2022-09-21T02:03:22;5.05;;;0.63;;
69573;SDS011;62840;52.366;5.980;2022-09-21T02:05:54;2.42;;;0.70;;
69573;SDS011;62840;52.366;5.980;2022-09-21T02:08:25;2.55;;;0.68;;
69573;SDS011;62840;52.366;5.980;2022-09-21T02:10:54;2.88;;;0.60;;
69573;SDS011;62840;52.366;5.980;2022-09-21T02:13:21;4.20;;;1.25;;
69573;SDS011;62840;52.366;5.980;2022-09-21T02:15:57;3.50;;;0.70;;
69573;SDS011;62840;52.366;5.980;2022-09-21T02:18:48;2.90;;;0.88;;
69573;SDS011;62840;52.366;5.980;2022-09-21T02:21:31;4.18;;;0.80;;
69573;SDS011;62840;52.366;5.980;2022-09-21T02:24:21;2.95;;;0.65;;
69573;SDS011;62840;52.366;5.980;2022-09-21T02:27:03;3.60;;;0.93;;
69573;SDS011;62840;52.366;5.980;2022-09-21T02:29:46;2.47;;;0.70;;
69573;SDS011;62840;52.366;5.980;2022-09-21T02:32:24;4.20;;;0.88;;
69573;SDS011;62840;52.366;5.980;2022-09-21T02:35:00;5.15;;;0.85;;
69573;SDS011;62840;52.366;5.980;2022-09-21T02:37:36;2.47;;;0.90;;
69573;SDS011;62840;52.366;5.980;2022-09-21T02:40:14;3.25;;;0.80;;
69573;SDS011;62840;52.366;5.980;2022-09-21T02:42:52;3.00;;;0.98;;
69573;SDS011;62840;52.366;5.980;2022-09-21T02:45:27;2.47;;;0.70;;
69573;SDS011;62840;52.366;5.980;2022-09-21T02:48:04;3.55;;;0.80;;
69573;SDS011;62840;52.366;5.980;2022-09-21T02:50:40;2.20;;;0.68;;
69573;SDS011;62840;52.366;5.980;2022-09-21T02:53:12;2.70;;;0.70;;
69573;SDS011;62840;52.366;5.980;2022-09-21T02:55:44;2.45;;;0.70;;
69573;SDS011;62840;52.366;5.980;2022-09-21T02:58:12;3.15;;;0.80;;
69573;SDS011;62840;52.366;5.980;2022-09-21T03:00:41;2.40;;;0.73;;
69573;SDS011;62840;52.366;5.980;2022-09-21T03:03:17;3.60;;;0.70;;
69573;SDS011;62840;52.366;5.980;2022-09-21T03:05:45;2.88;;;0.75;;
69573;SDS011;62840;52.366;5.980;2022-09-21T03:08:15;3.03;;;0.70;;
69573;SDS011;62840;52.366;5.980;2022-09-21T03:10:41;3.57;;;0.93;;
69573;SDS011;62840;52.366;5.980;2022-09-21T03:13:07;2.50;;;0.70;;
69573;SDS011;62840;52.366;5.980;2022-09-21T03:15:36;3.88;;;0.77;;
69573;SDS011;62840;52.366;5.980;2022-09-21T03:18:05;2.75;;;0.60;;
69573;SDS011;62840;52.366;5.980;2022-09-21T03:20:37;3.63;;;1.00;;
69573;SDS011;62840;52.366;5.980;2022-09-21T03:23:07;3.30;;;0.90;;
69573;SDS011;62840;52.366;5.980;2022-09-21T03:25:34;2.67;;;0.70;;
69573;SDS011;62840;52.366;5.980;2022-09-21T03:28:01;4.25;;;0.80;;
69573;SDS011;62840;52.366;5.980;2022-09-21T03:30:28;3.00;;;0.70;;
69573;SDS011;62840;52.366;5.980;2022-09-21T03:32:56;2.33;;;0.70;;
69573;SDS011;62840;52.366;5.980;2022-09-21T03:35:24;3.58;;;0.80;;
69573;SDS011;62840;52.366;5.980;2022-09-21T03:37:54;3.28;;;0.90;;
69573;SDS011;62840;52.366;5.980;2022-09-21T03:40:20;2.45;;;0.57;;
69573;SDS011;62840;52.366;5.980;2022-09-21T03:42:46;5.75;;;0.98;;
69573;SDS011;62840;52.366;5.980;2022-09-21T03:45:12;2.25;;;0.65;;
69573;SDS011;62840;52.366;5.980;2022-09-21T03:47:39;3.42;;;0.90;;
69573;SDS011;62840;52.366;5.980;2022-09-21T03:50:05;2.10;;;0.50;;
69573;SDS011;62840;52.366;5.980;2022-09-21T03:52:33;2.70;;;0.80;;
69573;SDS011;62840;52.366;5.980;2022-09-21T03:55:05;3.33;;;0.70;;
69573;SDS011;62840;52.366;5.980;2022-09-21T03:57:33;3.50;;;0.70;;
69573;SDS011;62840;52.366;5.980;2022-09-21T04:00:03;2.40;;;0.80;;
69573;SDS011;62840;52.366;5.980;2022-09-21T04:02:34;3.15;;;0.77;;
69573;SDS011;62840;52.366;5.980;2022-09-21T04:05:00;3.35;;;0.68;;
69573;SDS011;62840;52.366;5.980;2022-09-21T04:07:32;2.40;;;0.60;;
69573;SDS011;62840;52.366;5.980;2022-09-21T04:10:00;4.03;;;0.55;;
69573;SDS011;62840;52.366;5.980;2022-09-21T04:12:31;2.58;;;0.70;;
69573;SDS011;62840;52.366;5.980;2022-09-21T04:14:57;2.53;;;0.87;;
69573;SDS011;62840;52.366;5.980;2022-09-21T04:17:23;2.75;;;0.68;;
69573;SDS011;62840;52.366;5.980;2022-09-21T04:19:49;3.10;;;0.70;;
69573;SDS011;62840;52.366;5.980;2022-09-21T04:22:16;2.30;;;0.63;;
69573;SDS011;62840;52.366;5.980;2022-09-21T04:24:42;4.43;;;0.60;;
69573;SDS011;62840;52.366;5.980;2022-09-21T04:27:08;3.90;;;0.60;;
69573;SDS011;62840;52.366;5.980;2022-09-21T04:29:40;3.05;;;0.77;;
69573;SDS011;62840;52.366;5.980;2022-09-21T04:32:06;5.63;;;0.67;;
69573;SDS011;62840;52.366;5.980;2022-09-21T04:34:32;4.45;;;0.70;;
69573;SDS011;62840;52.366;5.980;2022-09-21T04:37:01;7.38;;;0.70;;
69573;SDS011;62840;52.366;5.980;2022-09-21T04:39:27;3.33;;;0.55;;
69573;SDS011;62840;52.366;5.980;2022-09-21T04:41:53;2.30;;;0.60;;
69573;SDS011;62840;52.366;5.980;2022-09-21T04:44:22;3.57;;;0.57;;
69573;SDS011;62840;52.366;5.980;2022-09-21T04:46:50;2.55;;;0.68;;
69573;SDS011;62840;52.366;5.980;2022-09-21T04:49:19;4.53;;;0.70;;
69573;SDS011;62840;52.366;5.980;2022-09-21T04:51:44;2.80;;;0.60;;
69573;SDS011;62840;52.366;5.980;2022-09-21T04:54:10;3.20;;;0.70;;
69573;SDS011;62840;52.366;5.980;2022-09-21T04:56:44;3.20;;;0.82;;
69573;SDS011;62840;52.366;5.980;2022-09-21T04:59:11;3.40;;;0.60;;
69573;SDS011;62840;52.366;5.980;2022-09-21T05:01:38;2.35;;;0.60;;
69573;SDS011;62840;52.366;5.980;2022-09-21T05:04:10;3.03;;;0.70;;
69573;SDS011;62840;52.366;5.980;2022-09-21T05:06:39;3.25;;;0.90;;
69573;SDS011;62840;52.366;5.980;2022-09-21T05:09:06;2.42;;;0.68;;
69573;SDS011;62840;52.366;5.980;2022-09-21T05:11:35;2.90;;;0.60;;
69573;SDS011;62840;52.366;5.980;2022-09-21T05:14:01;2.80;;;0.63;;
69573;SDS011;62840;52.366;5.980;2022-09-21T05:16:28;2.83;;;0.73;;
69573;SDS011;62840;52.366;5.980;2022-09-21T05:18:54;3.75;;;0.60;;
69573;SDS011;62840;52.366;5.980;2022-09-21T05:21:23;2.30;;;0.50;;
69573;SDS011;62840;52.366;5.980;2022-09-21T05:23:48;4.75;;;0.65;;
69573;SDS011;62840;52.366;5.980;2022-09-21T05:26:14;2.97;;;0.85;;
69573;SDS011;62840;52.366;5.980;2022-09-21T05:28:40;3.38;;;0.80;;
69573;SDS011;62840;52.366;5.980;2022-09-21T05:31:10;2.47;;;0.70;;
69573;SDS011;62840;52.366;5.980;2022-09-21T05:33:57;2.97;;;0.50;;
69573;SDS011;62840;52.366;5.980;2022-09-21T05:36:36;3.37;;;0.93;;
69573;SDS011;62840;52.366;5.980;2022-09-21T05:39:17;2.92;;;0.60;;
69573;SDS011;62840;52.366;5.980;2022-09-21T05:41:43;2.97;;;0.75;;
69573;SDS011;62840;52.366;5.980;2022-09-21T05:44:10;2.60;;;0.68;;
69573;SDS011;62840;52.366;5.980;2022-09-21T05:46:39;3.03;;;0.70;;
69573;SDS011;62840;52.366;5.980;2022-09-21T05:49:14;3.00;;;0.88;;
69573;SDS011;62840;52.366;5.980;2022-09-21T05:51:51;1.95;;;0.45;;
69573;SDS011;62840;52.366;5.980;2022-09-21T05:54:36;3.45;;;0.70;;
69573;SDS011;62840;52.366;5.980;2022-09-21T05:57:24;2.20;;;0.50;;
69573;SDS011;62840;52.366;5.980;2022-09-21T06:00:08;2.80;;;0.57;;
69573;SDS011;62840;52.366;5.980;2022-09-21T06:02:49;2.53;;;0.60;;
69573;SDS011;62840;52.366;5.980;2022-09-21T06:05:34;3.63;;;0.60;;
69573;SDS011;62840;52.366;5.980;2022-09-21T06:08:03;2.63;;;0.60;;
69573;SDS011;62840;52.366;5.980;2022-09-21T06:10:31;2.05;;;0.60;;
69573;SDS011;62840;52.366;5.980;2022-09-21T06:12:59;2.80;;;0.70;;
69573;SDS011;62840;52.366;5.980;2022-09-21T06:15:29;2.53;;;0.73;;
69573;SDS011;62840;52.366;5.980;2022-09-21T06:17:56;3.15;;;0.65;;
69573;SDS011;62840;52.366;5.980;2022-09-21T06:20:22;2.80;;;0.70;;
69573;SDS011;62840;52.366;5.980;2022-09-21T06:22:48;2.80;;;0.90;;
69573;SDS011;62840;52.366;5.980;2022-09-21T06:25:27;2.65;;;0.60;;
69573;SDS011;62840;52.366;5.980;2022-09-21T06:27:53;3.53;;;0.60;;
69573;SDS011;62840;52.366;5.980;2022-09-21T06:30:19;3.30;;;0.68;;
69573;SDS011;62840;52.366;5.980;2022-09-21T06:32:47;4.55;;;0.73;;
69573;SDS011;62840;52.366;5.980;2022-09-21T06:35:14;5.28;;;0.80;;
69573;SDS011;62840;52.366;5.980;2022-09-21T06:37:43;2.60;;;0.70;;
69573;SDS011;62840;52.366;5.980;2022-09-21T06:40:09;3.15;;;0.90;;
69573;SDS011;62840;52.366;5.980;2022-09-21T06:42:40;3.23;;;0.80;;
69573;SDS011;62840;52.366;5.980;2022-09-21T06:45:06;4.68;;;0.77;;
69573;SDS011;62840;52.366;5.980;2022-09-21T06:47:40;1.92;;;0.50;;
69573;SDS011;62840;52.366;5.980;2022-09-21T06:50:13;2.67;;;0.60;;
69573;SDS011;62840;52.366;5.980;2022-09-21T06:52:39;2.47;;;0.70;;
69573;SDS011;62840;52.366;5.980;2022-09-21T06:55:05;3.58;;;0.85;;
69573;SDS011;62840;52.366;5.980;2022-09-21T06:57:33;4.05;;;0.55;;
69573;SDS011;62840;52.366;5.980;2022-09-21T07:00:04;3.53;;;0.60;;
69573;SDS011;62840;52.366;5.980;2022-09-21T07:02:34;2.90;;;0.60;;
69573;SDS011;62840;52.366;5.980;2022-09-21T07:05:00;2.58;;;0.70;;
69573;SDS011;62840;52.366;5.980;2022-09-21T07:07:26;4.97;;;0.60;;
69573;SDS011;62840;52.366;5.980;2022-09-21T07:09:53;3.65;;;0.80;;
69573;SDS011;62840;52.366;5.980;2022-09-21T07:12:19;5.38;;;0.80;;
69573;SDS011;62840;52.366;5.980;2022-09-21T07:14:46;4.25;;;0.70;;
69573;SDS011;62840;52.366;5.980;2022-09-21T07:17:14;2.50;;;0.73;;
69573;SDS011;62840;52.366;5.980;2022-09-21T07:19:40;3.83;;;0.85;;
69573;SDS011;62840;52.366;5.980;2022-09-21T07:22:06;3.90;;;0.70;;
69573;SDS011;62840;52.366;5.980;2022-09-21T07:24:32;3.28;;;0.70;;
69573;SDS011;62840;52.366;5.980;2022-09-21T07:27:02;3.47;;;0.77;;
69573;SDS011;62840;52.366;5.980;2022-09-21T07:29:29;2.67;;;0.80;;
69573;SDS011;62840;52.366;5.980;2022-09-21T07:32:02;2.92;;;0.90;;
69573;SDS011;62840;52.366;5.980;2022-09-21T07:34:32;4.70;;;0.75;;
69573;SDS011;62840;52.366;5.980;2022-09-21T07:36:59;2.90;;;0.63;;
69573;SDS011;62840;52.366;5.980;2022-09-21T07:39:27;3.58;;;0.63;;
69573;SDS011;62840;52.366;5.980;2022-09-21T07:41:53;2.45;;;0.70;;
69573;SDS011;62840;52.366;5.980;2022-09-21T07:44:19;4.60;;;0.70;;
69573;SDS011;62840;52.366;5.980;2022-09-21T07:46:50;3.22;;;0.70;;
69573;SDS011;62840;52.366;5.980;2022-09-21T07:49:18;3.22;;;0.70;;
69573;SDS011;62840;52.366;5.980;2022-09-21T07:51:48;2.45;;;0.70;;
69573;SDS011;62840;52.366;5.980;2022-09-21T07:54:14;2.77;;;0.77;;
69573;SDS011;62840;52.366;5.980;2022-09-21T07:56:40;2.58;;;0.75;;
69573;SDS011;62840;52.366;5.980;2022-09-21T07:59:08;3.67;;;0.80;;
69573;SDS011;62840;52.366;5.980;2022-09-21T08:01:35;4.18;;;0.60;;
69573;SDS011;62840;52.366;5.980;2022-09-21T08:04:03;3.10;;;0.70;;
69573;SDS011;62840;52.366;5.980;2022-09-21T08:06:32;3.72;;;0.90;;
69573;SDS011;62840;52.366;5.980;2022-09-21T08:09:03;5.80;;;0.80;;
69573;SDS011;62840;52.366;5.980;2022-09-21T08:11:30;3.20;;;1.02;;
69573;SDS011;62840;52.366;5.980;2022-09-21T08:13:58;4.32;;;1.10;;
69573;SDS011;62840;52.366;5.980;2022-09-21T08:16:26;4.47;;;1.13;;
69573;SDS011;62840;52.366;5.980;2022-09-21T08:18:54;5.78;;;1.65;;
69573;SDS011;62840;52.366;5.980;2022-09-21T08:21:22;3.95;;;1.10;;
69573;SDS011;62840;52.366;5.980;2022-09-21T08:23:48;4.55;;;1.13;;
69573;SDS011;62840;52.366;5.980;2022-09-21T08:26:17;6.43;;;1.57;;
69573;SDS011;62840;52.366;5.980;2022-09-21T08:28:44;7.10;;;1.40;;
69573;SDS011;62840;52.366;5.980;2022-09-21T08:31:10;6.38;;;1.30;;
69573;SDS011;62840;52.366;5.980;2022-09-21T08:33:36;5.47;;;1.30;;
69573;SDS011;62840;52.366;5.980;2022-09-21T08:36:04;16.92;;;1.60;;
69573;SDS011;62840;52.366;5.980;2022-09-21T08:38:34;6.15;;;1.30;;
69573;SDS011;62840;52.366;5.980;2022-09-21T08:41:09;5.00;;;1.27;;
69573;SDS011;62840;52.366;5.980;2022-09-21T08:43:43;7.47;;;1.20;;
69573;SDS011;62840;52.366;5.980;2022-09-21T08:46:17;5.07;;;0.80;;
69573;SDS011;62840;52.366;5.980;2022-09-21T08:48:49;5.40;;;1.27;;
69573;SDS011;62840;52.366;5.980;2022-09-21T08:51:23;6.47;;;0.90;;
69573;SDS011;62840;52.366;5.980;2022-09-21T08:53:55;4.57;;;1.10;;
69573;SDS011;62840;52.366;5.980;2022-09-21T08:56:30;7.97;;;0.93;;
69573;SDS011;62840;52.366;5.980;2022-09-21T08:58:56;6.07;;;0.93;;
69573;SDS011;62840;52.366;5.980;2022-09-21T09:01:27;2.60;;;0.73;;
69573;SDS011;62840;52.366;5.980;2022-09-21T09:07:23;6.25;;;1.20;;
69573;SDS011;62840;52.366;5.980;2022-09-21T09:10:22;2.97;;;1.00;;
69573;SDS011;62840;52.366;5.980;2022-09-21T09:13:12;5.28;;;0.98;;
69573;SDS011;62840;52.366;5.980;2022-09-21T09:16:07;4.03;;;0.80;;
69573;SDS011;62840;52.366;5.980;2022-09-21T09:18:48;7.00;;;0.90;;
69573;SDS011;62840;52.366;5.980;2022-09-21T09:21:19;3.45;;;0.88;;
69573;SDS011;62840;52.366;5.980;2022-09-21T09:23:55;4.93;;;0.80;;
69573;SDS011;62840;52.366;5.980;2022-09-21T09:26:35;2.70;;;0.70;;
69573;SDS011;62840;52.366;5.980;2022-09-21T09:29:15;5.68;;;0.95;;
69573;SDS011;62840;52.366;5.980;2022-09-21T09:31:51;5.88;;;1.13;;
69573;SDS011;62840;52.366;5.980;2022-09-21T09:34:20;7.07;;;0.90;;
69573;SDS011;62840;52.366;5.980;2022-09-21T09:36:57;2.97;;;0.70;;
69573;SDS011;62840;52.366;5.980;2022-09-21T09:39:34;5.68;;;0.80;;
69573;SDS011;62840;52.366;5.980;2022-09-21T09:45:25;4.60;;;1.00;;
69573;SDS011;62840;52.366;5.980;2022-09-21T09:48:12;3.38;;;0.98;;
69573;SDS011;62840;52.366;5.980;2022-09-21T09:50:58;3.47;;;0.87;;
69573;SDS011;62840;52.366;5.980;2022-09-21T09:53:25;3.85;;;1.00;;
69573;SDS011;62840;52.366;5.980;2022-09-21T09:55:55;4.70;;;1.00;;
69573;SDS011;62840;52.366;5.980;2022-09-21T09:58:27;5.50;;;1.25;;
69573;SDS011;62840;52.366;5.980;2022-09-21T10:01:08;3.45;;;1.20;;
69573;SDS011;62840;52.366;5.980;2022-09-21T10:04:01;3.90;;;0.80;;
69573;SDS011;62840;52.366;5.980;2022-09-21T10:06:32;6.40;;;0.98;;
69573;SDS011;62840;52.366;5.980;2022-09-21T10:09:00;4.68;;;1.35;;
69573;SDS011;62840;52.366;5.980;2022-09-21T10:11:44;4.10;;;1.02;;
69573;SDS011;62840;52.366;5.980;2022-09-21T10:14:16;5.03;;;1.10;;
69573;SDS011;62840;52.366;5.980;2022-09-21T10:16:51;4.47;;;0.70;;
69573;SDS011;62840;52.366;5.980;2022-09-21T10:19:25;7.35;;;1.35;;
69573;SDS011;62840;52.366;5.980;2022-09-21T10:21:54;4.25;;;1.63;;
69573;SDS011;62840;52.366;5.980;2022-09-21T10:24:26;5.45;;;0.95;;
69573;SDS011;62840;52.366;5.980;2022-09-21T10:27:00;3.95;;;1.15;;
69573;SDS011;62840;52.366;5.980;2022-09-21T10:29:45;3.40;;;0.90;;
69573;SDS011;62840;52.366;5.980;2022-09-21T10:32:20;4.75;;;1.20;;
69573;SDS011;62840;52.366;5.980;2022-09-21T10:35:11;4.85;;;1.45;;
69573;SDS011;62840;52.366;5.980;2022-09-21T10:37:44;2.75;;;0.95;;
69573;SDS011;62840;52.366;5.980;2022-09-21T10:40:27;3.60;;;1.10;;
69573;SDS011;62840;52.366;5.980;2022-09-21T10:42:54;3.13;;;1.00;;
69573;SDS011;62840;52.366;5.980;2022-09-21T10:45:26;4.70;;;0.80;;
69573;SDS011;62840;52.366;5.980;2022-09-21T10:47:58;6.90;;;1.30;;
69573;SDS011;62840;52.366;5.980;2022-09-21T10:50:34;4.53;;;1.00;;
69573;SDS011;62840;52.366;5.980;2022-09-21T10:53:09;4.13;;;0.98;;
69573;SDS011;62840;52.366;5.980;2022-09-21T10:55:46;3.23;;;0.80;;
69573;SDS011;62840;52.366;5.980;2022-09-21T10:58:22;3.38;;;0.90;;
69573;SDS011;62840;52.366;5.980;2022-09-21T11:00:54;3.28;;;0.80;;
69573;SDS011;62840;52.366;5.980;2022-09-21T11:03:40;4.38;;;0.90;;
69573;SDS011;62840;52.366;5.980;2022-09-21T11:06:20;4.45;;;1.45;;
69573;SDS011;62840;52.366;5.980;2022-09-21T11:08:54;4.60;;;0.90;;
69573;SDS011;62840;52.366;5.980;2022-09-21T11:11:31;4.85;;;1.58;;
69573;SDS011;62840;52.366;5.980;2022-09-21T11:14:13;3.38;;;1.00;;
69573;SDS011;62840;52.366;5.980;2022-09-21T11:17:00;5.30;;;0.90;;
69573;SDS011;62840;52.366;5.980;2022-09-21T11:19:40;4.25;;;1.00;;
69573;SDS011;62840;52.366;5.980;2022-09-21T11:22:17;3.77;;;1.20;;
69573;SDS011;62840;52.366;5.980;2022-09-21T11:24:58;5.22;;;0.85;;
69573;SDS011;62840;52.366;5.980;2022-09-21T11:27:45;4.28;;;0.90;;
69573;SDS011;62840;52.366;5.980;2022-09-21T11:30:29;5.00;;;0.90;;
69573;SDS011;62840;52.366;5.980;2022-09-21T11:33:19;3.38;;;0.98;;
69573;SDS011;62840;52.366;5.980;2022-09-21T11:36:06;4.47;;;0.70;;
69573;SDS011;62840;52.366;5.980;2022-09-21T11:38:46;6.43;;;0.98;;
69573;SDS011;62840;52.366;5.980;2022-09-21T11:41:35;3.20;;;0.90;;
69573;SDS011;62840;52.366;5.980;2022-09-21T11:47:20;3.92;;;0.80;;
69573;SDS011;62840;52.366;5.980;2022-09-21T11:50:09;3.73;;;0.73;;
69573;SDS011;62840;52.366;5.980;2022-09-21T11:53:04;5.20;;;0.90;;
69573;SDS011;62840;52.366;5.980;2022-09-21T11:58:56;3.28;;;0.88;;
69573;SDS011;62840;52.366;5.980;2022-09-21T12:01:53;4.05;;;0.90;;
69573;SDS011;62840;52.366;5.980;2022-09-21T12:04:45;4.43;;;0.80;;
69573;SDS011;62840;52.366;5.980;2022-09-21T12:07:26;2.58;;;0.75;;
69573;SDS011;62840;52.366;5.980;2022-09-21T12:10:32;2.83;;;0.70;;
69573;SDS011;62840;52.366;5.980;2022-09-21T12:13:37;3.38;;;0.75;;
69573;SDS011;62840;52.366;5.980;2022-09-21T12:16:15;4.03;;;0.80;;
69573;SDS011;62840;52.366;5.980;2022-09-21T12:18:53;3.80;;;0.90;;
69573;SDS011;62840;52.366;5.980;2022-09-21T12:21:32;3.67;;;0.70;;
69573;SDS011;62840;52.366;5.980;2022-09-21T12:24:05;4.63;;;0.80;;
69573;SDS011;62840;52.366;5.980;2022-09-21T12:26:44;3.03;;;0.70;;
69573;SDS011;62840;52.366;5.980;2022-09-21T12:29:18;2.67;;;0.80;;
69573;SDS011;62840;52.366;5.980;2022-09-21T12:31:55;2.63;;;0.70;;
69573;SDS011;62840;52.366;5.980;2022-09-21T12:34:30;3.50;;;0.80;;
69573;SDS011;62840;52.366;5.980;2022-09-21T12:37:08;4.07;;;0.70;;
69573;SDS011;62840;52.366;5.980;2022-09-21T12:39:43;3.85;;;0.70;;
69573;SDS011;62840;52.366;5.980;2022-09-21T12:42:25;2.78;;;0.65;;
69573;SDS011;62840;52.366;5.980;2022-09-21T12:45:05;3.17;;;0.70;;
69573;SDS011;62840;52.366;5.980;2022-09-21T12:47:48;3.10;;;0.70;;
69573;SDS011;62840;52.366;5.980;2022-09-21T12:50:26;3.30;;;0.70;;
69573;SDS011;62840;52.366;5.980;2022-09-21T12:53:02;3.05;;;0.65;;
69573;SDS011;62840;52.366;5.980;2022-09-21T12:55:36;3.90;;;0.98;;
69573;SDS011;62840;52.366;5.980;2022-09-21T12:58:18;2.63;;;0.73;;
69573;SDS011;62840;52.366;5.980;2022-09-21T13:01:09;3.15;;;0.90;;
69573;SDS011;62840;52.366;5.980;2022-09-21T13:03:57;4.18;;;0.75;;
69573;SDS011;62840;52.366;5.980;2022-09-21T13:07:15;3.63;;;0.77;;
69573;SDS011;62840;52.366;5.980;2022-09-21T13:10:14;3.35;;;0.80;;
69573;SDS011;62840;52.366;5.980;2022-09-21T13:12:55;4.23;;;0.70;;
69573;SDS011;62840;52.366;5.980;2022-09-21T13:15:31;3.67;;;0.90;;
69573;SDS011;62840;52.366;5.980;2022-09-21T13:18:16;3.60;;;0.73;;
69573;SDS011;62840;52.366;5.980;2022-09-21T13:20:51;4.55;;;0.75;;
69573;SDS011;62840;52.366;5.980;2022-09-21T13:23:22;3.30;;;0.90;;
69573;SDS011;62840;52.366;5.980;2022-09-21T13:26:20;4.80;;;0.80;;
69573;SDS011;62840;52.366;5.980;2022-09-21T13:29:00;3.85;;;0.80;;
69573;SDS011;62840;52.366;5.980;2022-09-21T13:32:02;5.15;;;0.90;;
69573;SDS011;62840;52.366;5.980;2022-09-21T13:34:49;5.10;;;1.33;;
69573;SDS011;62840;52.366;5.980;2022-09-21T13:43:15;2.50;;;0.60;;
69573;SDS011;62840;52.366;5.980;2022-09-21T13:45:49;4.05;;;0.82;;
69573;SDS011;62840;52.366;5.980;2022-09-21T13:48:22;2.65;;;0.93;;
69573;SDS011;62840;52.366;5.980;2022-09-21T13:50:57;2.90;;;0.90;;
69573;SDS011;62840;52.366;5.980;2022-09-21T13:53:33;3.83;;;0.70;;
69573;SDS011;62840;52.366;5.980;2022-09-21T13:56:19;4.53;;;0.80;;
69573;SDS011;62840;52.366;5.980;2022-09-21T13:58:53;3.88;;;0.77;;
69573;SDS011;62840;52.366;5.980;2022-09-21T14:01:24;3.47;;;1.10;;
69573;SDS011;62840;52.366;5.980;2022-09-21T14:04:02;2.85;;;1.00;;
69573;SDS011;62840;52.366;5.980;2022-09-21T14:06:48;4.97;;;0.93;;
69573;SDS011;62840;52.366;5.980;2022-09-21T14:09:30;3.50;;;0.60;;
69573;SDS011;62840;52.366;5.980;2022-09-21T14:12:07;3.10;;;0.90;;
69573;SDS011;62840;52.366;5.980;2022-09-21T14:15:07;3.10;;;0.63;;
69573;SDS011;62840;52.366;5.980;2022-09-21T14:27:02;3.72;;;0.80;;
69573;SDS011;62840;52.366;5.980;2022-09-21T14:29:42;4.53;;;1.10;;
69573;SDS011;62840;52.366;5.980;2022-09-21T14:32:16;4.45;;;0.70;;
69573;SDS011;62840;52.366;5.980;2022-09-21T14:34:50;2.93;;;0.80;;
69573;SDS011;62840;52.366;5.980;2022-09-21T14:37:32;3.33;;;0.77;;
69573;SDS011;62840;52.366;5.980;2022-09-21T14:40:15;3.85;;;0.90;;
69573;SDS011;62840;52.366;5.980;2022-09-21T14:42:47;5.68;;;1.00;;
69573;SDS011;62840;52.366;5.980;2022-09-21T14:45:21;4.03;;;0.70;;
69573;SDS011;62840;52.366;5.980;2022-09-21T14:48:00;3.90;;;0.83;;
69573;SDS011;62840;52.366;5.980;2022-09-21T14:50:38;2.70;;;0.60;;
69573;SDS011;62840;52.366;5.980;2022-09-21T14:53:28;3.90;;;0.77;;
69573;SDS011;62840;52.366;5.980;2022-09-21T14:56:16;3.30;;;0.80;;
69573;SDS011;62840;52.366;5.980;2022-09-21T14:59:14;4.25;;;0.82;;
69573;SDS011;62840;52.366;5.980;2022-09-21T15:02:12;2.20;;;0.70;;
69573;SDS011;62840;52.366;5.980;2022-09-21T15:05:00;2.47;;;0.82;;
69573;SDS011;62840;52.366;5.980;2022-09-21T15:07:45;3.35;;;0.80;;
69573;SDS011;62840;52.366;5.980;2022-09-21T15:10:27;3.67;;;0.70;;
69573;SDS011;62840;52.366;5.980;2022-09-21T15:16:44;4.90;;;1.20;;
69573;SDS011;62840;52.366;5.980;2022-09-21T15:19:14;5.75;;;2.70;;
69573;SDS011;62840;52.366;5.980;2022-09-21T15:21:51;7.68;;;2.53;;
69573;SDS011;62840;52.366;5.980;2022-09-21T15:24:20;5.90;;;1.90;;
69573;SDS011;62840;52.366;5.980;2022-09-21T15:26:54;3.70;;;1.50;;
69573;SDS011;62840;52.366;5.980;2022-09-21T15:29:33;5.17;;;1.10;;
69573;SDS011;62840;52.366;5.980;2022-09-21T15:32:06;2.80;;;0.73;;
69573;SDS011;62840;52.366;5.980;2022-09-21T15:34:32;3.08;;;0.98;;
69573;SDS011;62840;52.366;5.980;2022-09-21T15:37:07;4.53;;;0.90;;
69573;SDS011;62840;52.366;5.980;2022-09-21T15:39:40;3.47;;;0.98;;
69573;SDS011;62840;52.366;5.980;2022-09-21T15:42:14;3.70;;;0.67;;
69573;SDS011;62840;52.366;5.980;2022-09-21T15:44:44;4.43;;;0.90;;
69573;SDS011;62840;52.366;5.980;2022-09-21T15:47:36;2.40;;;1.00;;
69573;SDS011;62840;52.366;5.980;2022-09-21T15:50:04;5.47;;;0.88;;
69573;SDS011;62840;52.366;5.980;2022-09-21T15:52:40;3.33;;;0.82;;
69573;SDS011;62840;52.366;5.980;2022-09-21T15:55:15;3.13;;;0.80;;
69573;SDS011;62840;52.366;5.980;2022-09-21T15:57:46;7.60;;;2.65;;
69573;SDS011;62840;52.366;5.980;2022-09-21T16:00:22;7.45;;;4.65;;
69573;SDS011;62840;52.366;5.980;2022-09-21T16:02:59;5.10;;;2.60;;
69573;SDS011;62840;52.366;5.980;2022-09-21T16:05:30;4.95;;;2.60;;
69573;SDS011;62840;52.366;5.980;2022-09-21T16:08:09;4.93;;;2.30;;